Weather at Izhevsk Airport

Public forecast

Using degrees Celsius for public forecast. Weather courtesy of forecast.io.

Closest aviation weather report (METAR) to Izhevsk Airport

Closest report is Begishevo Airport, 88.5 nm (163.9 km) SSW. Retrieved 2020/10/27 14:30 UTC (1 hour ago):

UWKE 271430Z 31002MPS CAVOK M01/M04 Q1032 R03/090070 NOSIG RMK QFE757/1010

Closest aviation forecast (TAF) to Izhevsk Airport

Closest forecast is Begishevo Airport, 88.5 nm (163.9 km) SSW. Retrieved 2020/10/27 15:24 UTC (16 minutes ago):

TAF UWKE 271345Z 2715/2815 30003G09MPS 9999 SCT020 TEMPO 2715/2718 VRB01MPS BECMG 2718/2719 23003G09MPS TEMPO 2718/2805 3100 BR BKN011 TEMPO 2806/2812 22006G12MPS